Time;durP1;ratioP1;P1;durP2;ratioP2;P2;SDS_P1;SDS_P2;PMS_P1;PMS_P2;Temp;Humidity;BMP_temperature;BMP_pressure;BME280_temperature;BME280_humidity;BME280_pressure;Samples;Min_cycle;Max_cycle;Signal;HPM_P1;HPM_P2
2023/09/20 00:01:08;;;;;;;5.15;0.70;;;18.20;99.90;;;;;;5014928;28;20045;-74
2023/09/20 00:03:35;;;;;;;5.03;1.13;;;18.10;99.90;;;;;;5000184;28;20052;-74
2023/09/20 00:06:09;;;;;;;5.03;1.10;;;18.20;99.90;;;;;;5000870;28;20040;-74
2023/09/20 00:08:35;;;;;;;4.28;0.98;;;18.20;99.90;;;;;;4998058;28;20052;-74
2023/09/20 00:11:02;;;;;;;7.32;1.65;;;18.20;99.90;;;;;;5014364;28;20049;-74
2023/09/20 00:13:28;;;;;;;6.70;1.00;;;18.20;99.90;;;;;;4997984;28;20030;-74
2023/09/20 00:15:56;;;;;;;6.82;1.30;;;18.20;99.90;;;;;;5009320;28;20038;-74
2023/09/20 00:18:24;;;;;;;5.90;1.00;;;18.20;99.90;;;;;;5008543;28;20037;-74
2023/09/20 00:20:51;;;;;;;3.78;0.75;;;18.20;99.90;;;;;;4967062;28;20052;-74
2023/09/20 00:23:21;;;;;;;4.05;0.80;;;18.30;99.90;;;;;;5015600;28;20038;-74
2023/09/20 00:25:49;;;;;;;5.85;0.90;;;18.20;99.90;;;;;;5016012;28;20048;-73
2023/09/20 00:28:18;;;;;;;5.47;0.65;;;18.30;99.90;;;;;;5012655;28;20029;-74
2023/09/20 00:30:45;;;;;;;3.60;0.50;;;18.30;99.90;;;;;;4998603;28;20068;-74
2023/09/20 00:33:12;;;;;;;4.35;0.75;;;18.30;99.90;;;;;;5015891;28;20506;-74
2023/09/20 00:35:41;;;;;;;2.90;0.60;;;18.30;99.90;;;;;;4997563;28;20040;-74
2023/09/20 00:38:08;;;;;;;4.40;0.85;;;18.20;99.90;;;;;;4983567;28;20413;-74
2023/09/20 00:40:37;;;;;;;5.68;0.80;;;18.30;99.90;;;;;;5012628;28;20044;-74
2023/09/20 00:43:07;;;;;;;5.22;1.02;;;18.30;99.90;;;;;;5008352;28;20049;-74
2023/09/20 00:45:36;;;;;;;4.63;0.93;;;18.30;99.90;;;;;;4994815;28;20537;-74
2023/09/20 00:48:05;;;;;;;5.15;1.00;;;18.30;99.90;;;;;;4997032;28;20033;-74
2023/09/20 00:50:31;;;;;;;5.97;1.77;;;18.30;99.90;;;;;;5013955;28;20538;-74
2023/09/20 00:52:59;;;;;;;4.38;0.70;;;18.30;99.90;;;;;;5014554;28;20033;-74
2023/09/20 00:55:28;;;;;;;3.42;0.70;;;18.20;99.90;;;;;;5014781;28;20479;-74
2023/09/20 00:58:03;;;;;;;4.45;1.05;;;18.20;99.90;;;;;;5014593;28;20037;-74
2023/09/20 01:00:32;;;;;;;3.10;0.75;;;18.20;99.90;;;;;;5016190;28;20025;-74
2023/09/20 01:03:01;;;;;;;4.68;0.90;;;18.10;99.90;;;;;;4997766;28;20363;-74
2023/09/20 01:05:30;;;;;;;5.38;1.05;;;18.10;99.90;;;;;;4998401;28;20044;-74
2023/09/20 01:07:57;;;;;;;5.00;0.90;;;18.10;99.90;;;;;;5014546;28;20484;-74
2023/09/20 01:10:25;;;;;;;3.40;0.80;;;18.10;99.90;;;;;;5014349;28;20037;-75
2023/09/20 01:13:02;;;;;;;3.13;0.88;;;18.10;99.90;;;;;;5010846;28;20494;-74
2023/09/20 01:15:31;;;;;;;3.90;1.00;;;18.20;99.90;;;;;;5015120;28;20443;-74
2023/09/20 01:17:59;;;;;;;5.30;1.17;;;18.10;99.90;;;;;;4996947;28;20040;-74
2023/09/20 01:20:26;;;;;;;3.63;0.80;;;18.10;99.90;;;;;;5014805;28;20581;-74
2023/09/20 01:22:54;;;;;;;6.40;1.30;;;18.10;99.90;;;;;;4996888;28;20040;-74
2023/09/20 01:25:22;;;;;;;5.05;0.82;;;18.00;99.90;;;;;;4982552;28;20037;-74
2023/09/20 01:27:56;;;;;;;7.13;0.88;;;17.90;99.90;;;;;;4996783;28;20034;-74
2023/09/20 01:30:27;;;;;;;5.43;0.90;;;17.80;99.90;;;;;;4979663;28;20507;-74
2023/09/20 01:32:58;;;;;;;5.35;0.90;;;17.80;99.90;;;;;;5013848;28;20579;-75
2023/09/20 01:35:26;;;;;;;5.82;1.02;;;17.70;99.90;;;;;;5030207;28;20789;-74
2023/09/20 01:37:55;;;;;;;4.03;0.85;;;17.60;99.90;;;;;;5014739;28;20033;-74
2023/09/20 01:40:25;;;;;;;3.20;0.60;;;17.50;99.90;;;;;;5013932;28;20037;-74
2023/09/20 01:42:53;;;;;;;3.97;1.10;;;17.50;99.90;;;;;;4999147;28;20037;-74
2023/09/20 01:45:20;;;;;;;4.35;0.80;;;17.40;99.90;;;;;;5013532;28;21525;-74
2023/09/20 01:47:51;;;;;;;4.22;0.63;;;17.30;99.90;;;;;;5014284;28;20033;-74
2023/09/20 01:50:25;;;;;;;4.47;1.23;;;17.30;99.90;;;;;;4994793;28;20052;-74
2023/09/20 01:52:57;;;;;;;5.15;0.88;;;17.20;99.90;;;;;;5010792;28;20033;-74
2023/09/20 01:55:27;;;;;;;5.60;1.70;;;17.20;99.90;;;;;;5011740;28;21157;-74
2023/09/20 01:57:59;;;;;;;3.63;0.80;;;17.20;99.90;;;;;;4996070;28;20041;-74
2023/09/20 02:00:36;;;;;;;;;;;17.10;99.90;;;;;;5009279;28;20277;-74
2023/09/20 02:03:19;;;;;;;3.92;0.93;;;17.00;99.90;;;;;;5012042;28;19913;-74
2023/09/20 02:05:49;;;;;;;4.32;0.88;;;17.00;99.90;;;;;;4981255;28;20056;-74
2023/09/20 02:08:16;;;;;;;4.65;0.90;;;16.90;99.90;;;;;;4997858;28;20048;-74
2023/09/20 02:10:44;;;;;;;6.63;1.10;;;16.90;99.90;;;;;;5028195;28;20071;-74
2023/09/20 02:13:11;;;;;;;4.80;1.00;;;16.90;99.90;;;;;;4980905;28;20060;-74
2023/09/20 02:15:41;;;;;;;3.55;0.75;;;16.90;99.90;;;;;;4996239;28;20037;-74
2023/09/20 02:18:12;;;;;;;5.15;0.88;;;16.90;99.90;;;;;;4982054;28;20037;-75
2023/09/20 02:20:39;;;;;;;5.57;0.73;;;16.90;99.90;;;;;;5012009;28;20037;-74
2023/09/20 02:23:07;;;;;;;7.53;1.25;;;16.80;99.90;;;;;;4996469;28;20029;-75
2023/09/20 02:25:35;;;;;;;4.22;0.85;;;16.90;99.90;;;;;;5009997;28;20403;-75
2023/09/20 02:28:01;;;;;;;3.65;0.80;;;16.80;99.90;;;;;;5013029;28;20030;-74
2023/09/20 02:30:28;;;;;;;5.22;1.00;;;16.80;99.90;;;;;;4996732;28;20030;-74
2023/09/20 02:32:59;;;;;;;3.85;0.80;;;16.80;99.90;;;;;;4999150;28;20050;-74
2023/09/20 02:35:30;;;;;;;5.63;1.30;;;16.80;99.90;;;;;;4994438;28;20052;-74
2023/09/20 02:37:58;;;;;;;4.78;1.00;;;16.70;99.90;;;;;;5013664;28;20679;-74
2023/09/20 02:40:26;;;;;;;3.70;0.65;;;16.70;99.90;;;;;;4981199;28;20033;-74
2023/09/20 02:42:54;;;;;;;2.90;0.68;;;16.70;99.90;;;;;;5006006;28;20064;-74
2023/09/20 02:45:24;;;;;;;2.95;0.70;;;16.60;99.90;;;;;;4980994;28;20029;-74
2023/09/20 02:47:52;;;;;;;5.78;1.27;;;16.60;99.90;;;;;;4982262;28;20041;-74
2023/09/20 02:50:22;;;;;;;4.25;0.80;;;16.60;99.90;;;;;;5012575;28;20030;-74
2023/09/20 02:52:50;;;;;;;3.30;0.50;;;16.50;99.90;;;;;;4980618;28;20405;-74
2023/09/20 02:55:20;;;;;;;3.53;0.60;;;16.50;99.90;;;;;;5011875;28;20033;-74
2023/09/20 02:57:52;;;;;;;2.00;0.60;;;16.50;99.90;;;;;;5014174;28;20041;-74
2023/09/20 03:00:21;;;;;;;1.73;0.60;;;16.40;99.90;;;;;;4995433;28;20033;-74
2023/09/20 03:02:51;;;;;;;4.70;0.90;;;16.40;99.90;;;;;;4995375;28;20380;-75
2023/09/20 03:05:21;;;;;;;2.63;0.70;;;16.30;99.90;;;;;;4998418;28;20044;-74
2023/09/20 03:07:49;;;;;;;2.53;0.80;;;16.30;99.90;;;;;;5030031;28;20055;-74
2023/09/20 03:10:22;;;;;;;2.85;0.95;;;16.30;99.90;;;;;;5013855;28;20500;-74
2023/09/20 03:12:51;;;;;;;3.33;0.80;;;16.20;99.90;;;;;;5028336;28;20045;-74
2023/09/20 03:15:23;;;;;;;2.95;0.85;;;16.20;99.90;;;;;;5014638;28;20488;-74
2023/09/20 03:17:53;;;;;;;1.50;0.50;;;16.10;99.90;;;;;;4995902;28;21358;-74
2023/09/20 03:20:23;;;;;;;3.33;0.70;;;16.10;99.90;;;;;;5014111;28;20025;-74
2023/09/20 03:23:03;;;;;;;3.92;0.70;;;16.00;99.90;;;;;;5013506;28;20625;-74
2023/09/20 03:25:38;;;;;;;3.35;0.73;;;16.00;99.90;;;;;;4997676;28;20107;-74
2023/09/20 03:28:22;;;;;;;5.35;1.20;;;16.00;99.90;;;;;;5028105;28;20034;-74
2023/09/20 03:30:51;;;;;;;5.72;0.98;;;16.00;99.90;;;;;;4994966;28;20030;-74
2023/09/20 03:33:21;;;;;;;3.20;0.70;;;15.90;99.90;;;;;;4997326;28;20050;-74
2023/09/20 03:35:49;;;;;;;3.78;0.70;;;15.90;99.90;;;;;;4995629;28;20045;-74
2023/09/20 03:38:16;;;;;;;3.15;0.70;;;15.90;99.90;;;;;;5013930;28;20029;-74
2023/09/20 03:40:43;;;;;;;2.70;0.70;;;15.90;99.90;;;;;;4991403;28;20041;-74
2023/09/20 03:43:10;;;;;;;4.78;0.60;;;15.90;99.90;;;;;;4991282;28;20029;-74
2023/09/20 03:45:42;;;;;;;3.58;0.70;;;15.90;99.90;;;;;;4972030;28;20046;-74
2023/09/20 03:48:09;;;;;;;2.95;0.70;;;15.80;99.90;;;;;;4996426;28;20340;-74
2023/09/20 03:50:37;;;;;;;3.13;0.75;;;15.90;99.90;;;;;;5013878;28;20042;-74
2023/09/20 03:53:04;;;;;;;3.55;0.60;;;15.90;99.90;;;;;;4995952;28;20045;-74
2023/09/20 03:55:33;;;;;;;5.65;1.00;;;15.90;99.90;;;;;;4996246;28;20036;-74
2023/09/20 03:57:59;;;;;;;4.00;0.60;;;16.00;99.90;;;;;;5012910;28;20053;-74
2023/09/20 04:00:25;;;;;;;1.75;0.52;;;16.00;99.90;;;;;;5011002;28;20041;-74
2023/09/20 04:02:54;;;;;;;2.17;0.60;;;16.10;99.90;;;;;;5016987;28;20499;-74
2023/09/20 04:05:21;;;;;;;2.13;0.63;;;16.10;99.90;;;;;;5015338;28;20026;-74
2023/09/20 04:07:48;;;;;;;3.78;0.93;;;16.10;99.90;;;;;;5017425;28;20381;-74
2023/09/20 04:10:16;;;;;;;3.85;0.80;;;16.20;99.90;;;;;;4999961;28;20037;-74
2023/09/20 04:12:43;;;;;;;5.15;1.15;;;16.20;99.90;;;;;;4984728;28;20515;-74
2023/09/20 04:15:10;;;;;;;3.88;0.77;;;16.20;99.90;;;;;;4986741;28;20058;-75
2023/09/20 04:17:37;;;;;;;2.20;0.65;;;16.20;99.90;;;;;;4980794;28;20048;-74
2023/09/20 04:20:05;;;;;;;2.50;1.13;;;16.30;99.90;;;;;;4996855;28;20033;-74
2023/09/20 04:22:32;;;;;;;5.07;0.80;;;16.40;99.90;;;;;;4997217;28;20037;-74
2023/09/20 04:25:00;;;;;;;5.03;0.90;;;16.50;99.90;;;;;;4993392;28;20397;-76
2023/09/20 04:27:31;;;;;;;3.03;0.85;;;16.50;99.90;;;;;;5000394;28;20061;-74
2023/09/20 04:29:58;;;;;;;5.40;1.00;;;16.60;99.90;;;;;;5015463;28;20607;-74
2023/09/20 04:32:25;;;;;;;5.18;0.93;;;16.60;99.90;;;;;;5013758;28;20033;-74
2023/09/20 04:34:56;;;;;;;3.40;0.90;;;16.60;99.90;;;;;;4998807;28;20049;-74
2023/09/20 04:37:23;;;;;;;4.47;1.05;;;16.70;99.90;;;;;;4984396;28;20395;-74
2023/09/20 04:39:49;;;;;;;3.90;1.00;;;16.70;99.90;;;;;;4998424;28;20041;-74
2023/09/20 04:42:17;;;;;;;3.00;0.60;;;16.70;99.90;;;;;;5011887;28;20686;-74
2023/09/20 04:44:43;;;;;;;8.35;1.30;;;16.60;99.90;;;;;;5011680;28;20038;-74
2023/09/20 04:47:11;;;;;;;4.07;1.10;;;16.60;99.90;;;;;;4978862;28;20037;-74
2023/09/20 04:49:38;;;;;;;3.97;1.00;;;16.50;99.90;;;;;;4967766;28;20036;-74
2023/09/20 04:52:10;;;;;;;4.05;1.08;;;16.50;99.90;;;;;;5000573;28;20033;-74
2023/09/20 04:54:37;;;;;;;6.50;1.05;;;16.40;99.90;;;;;;4998712;28;20045;-74
2023/09/20 04:57:07;;;;;;;3.72;1.15;;;16.40;99.90;;;;;;5014334;28;20038;-73
2023/09/20 04:59:33;;;;;;;4.40;1.10;;;16.40;99.90;;;;;;5013449;28;20037;-73
2023/09/20 05:02:02;;;;;;;3.20;0.85;;;16.30;99.90;;;;;;4976024;28;20046;-74
2023/09/20 05:04:29;;;;;;;3.78;0.88;;;16.30;99.90;;;;;;4996620;28;20388;-74
2023/09/20 05:06:56;;;;;;;5.82;1.35;;;16.20;99.90;;;;;;4983967;28;20033;-73
2023/09/20 05:09:24;;;;;;;7.18;1.38;;;16.20;99.90;;;;;;4997591;28;20392;-73
2023/09/20 05:11:50;;;;;;;3.78;1.00;;;16.20;99.90;;;;;;5012645;28;20037;-74
2023/09/20 05:14:18;;;;;;;5.10;1.13;;;16.20;99.90;;;;;;5014017;28;20060;-74
2023/09/20 05:16:45;;;;;;;4.55;1.73;;;16.10;99.90;;;;;;4998414;28;20400;-75
2023/09/20 05:19:14;;;;;;;4.38;1.70;;;16.10;99.90;;;;;;4998511;28;20030;-75
2023/09/20 05:21:41;;;;;;;5.50;1.90;;;16.10;99.90;;;;;;4996919;28;20037;-74
2023/09/20 05:24:07;;;;;;;5.88;1.65;;;16.10;99.90;;;;;;5015139;28;20037;-74
2023/09/20 05:26:34;;;;;;;3.83;1.00;;;16.00;99.90;;;;;;4980822;28;20040;-75
2023/09/20 05:29:00;;;;;;;7.55;1.77;;;16.10;99.90;;;;;;5013073;28;20026;-74
2023/09/20 05:31:28;;;;;;;3.20;1.23;;;16.10;99.90;;;;;;4996634;28;20042;-74
2023/09/20 05:33:55;;;;;;;9.05;1.83;;;16.00;99.90;;;;;;5011981;28;20037;-74
2023/09/20 05:36:27;;;;;;;6.25;1.75;;;16.00;99.90;;;;;;5015215;28;20033;-74
2023/09/20 05:38:54;;;;;;;3.25;1.13;;;16.00;99.90;;;;;;4981642;28;20037;-74
2023/09/20 05:41:20;;;;;;;3.70;1.40;;;16.10;99.90;;;;;;4997539;28;20361;-75
2023/09/20 05:43:47;;;;;;;3.85;1.50;;;16.00;99.90;;;;;;4996015;28;20033;-75
2023/09/20 05:46:13;;;;;;;3.58;1.05;;;16.10;99.90;;;;;;4998408;28;20040;-78
2023/09/20 05:48:41;;;;;;;5.50;3.53;;;16.10;99.90;;;;;;5011769;28;20021;-75
2023/09/20 05:51:08;;;;;;;5.80;3.28;;;16.10;99.90;;;;;;4975294;28;20550;-75
2023/09/20 05:53:34;;;;;;;7.53;3.92;;;16.20;99.90;;;;;;5008820;28;20036;-75
2023/09/20 05:56:08;;;;;;;6.18;3.40;;;16.20;99.90;;;;;;4999511;28;20513;-75
2023/09/20 05:58:35;;;;;;;7.95;2.70;;;16.30;99.90;;;;;;4979951;28;20044;-75
2023/09/20 06:01:01;;;;;;;7.82;1.55;;;16.30;99.90;;;;;;4997446;28;20049;-76
2023/09/20 06:03:28;;;;;;;4.93;1.10;;;16.40;99.90;;;;;;4964314;28;20042;-73
2023/09/20 06:05:55;;;;;;;6.30;1.20;;;16.50;99.90;;;;;;4984523;28;20036;-74
2023/09/20 06:08:21;;;;;;;6.25;1.90;;;16.60;99.90;;;;;;5014489;28;20418;-74
2023/09/20 06:10:48;;;;;;;3.67;1.17;;;16.70;99.90;;;;;;5013286;28;20044;-74
2023/09/20 06:13:15;;;;;;;4.40;1.30;;;16.90;99.90;;;;;;4996416;28;20044;-74
2023/09/20 06:15:42;;;;;;;4.22;1.58;;;17.00;99.90;;;;;;5002003;28;20748;-74
2023/09/20 06:18:09;;;;;;;9.77;2.58;;;17.20;99.90;;;;;;4996863;28;20404;-75
2023/09/20 06:20:36;;;;;;;5.88;2.15;;;17.30;99.90;;;;;;4997479;28;20388;-75
2023/09/20 06:23:03;;;;;;;4.45;1.30;;;17.40;99.90;;;;;;5011642;28;20033;-74
2023/09/20 06:25:29;;;;;;;5.30;1.50;;;17.50;99.90;;;;;;5013077;28;20969;-74
2023/09/20 06:27:56;;;;;;;5.80;0.90;;;17.70;99.90;;;;;;4996840;28;20033;-74
2023/09/20 06:30:24;;;;;;;5.97;1.30;;;17.80;99.90;;;;;;4997189;28;20040;-74
2023/09/20 06:32:51;;;;;;;4.32;0.85;;;17.90;99.90;;;;;;5012535;28;20044;-74
2023/09/20 06:35:21;;;;;;;6.68;1.00;;;18.00;99.90;;;;;;4979744;28;20554;-74
2023/09/20 06:37:48;;;;;;;2.67;0.80;;;18.00;99.90;;;;;;5011592;28;20096;-74
2023/09/20 06:40:22;;;;;;;2.22;0.70;;;18.00;99.90;;;;;;5011897;28;20053;-74
2023/09/20 06:42:50;;;;;;;3.72;1.20;;;18.00;99.90;;;;;;4983439;28;20034;-74
2023/09/20 06:45:20;;;;;;;6.85;1.27;;;18.10;99.90;;;;;;4994839;28;20025;-74
2023/09/20 06:47:46;;;;;;;1.63;0.60;;;18.10;99.90;;;;;;5013295;28;20056;-74
2023/09/20 06:50:13;;;;;;;4.50;1.23;;;18.20;99.90;;;;;;5010851;28;20431;-74
2023/09/20 06:52:42;;;;;;;4.18;1.00;;;18.30;99.90;;;;;;5029147;28;20030;-74
2023/09/20 06:55:13;;;;;;;2.45;0.65;;;18.30;99.90;;;;;;5021956;28;20100;-74
2023/09/20 06:57:41;;;;;;;3.20;0.85;;;18.40;99.90;;;;;;4993852;28;20041;-74
2023/09/20 07:00:18;;;;;;;3.55;0.95;;;18.50;99.90;;;;;;4999656;28;20041;-74
2023/09/20 07:02:46;;;;;;;2.95;1.02;;;18.50;99.90;;;;;;4994810;28;20038;-74
2023/09/20 07:05:13;;;;;;;3.42;1.05;;;18.50;99.90;;;;;;4995702;28;20069;-73
2023/09/20 07:07:40;;;;;;;3.28;0.88;;;18.50;99.90;;;;;;5011842;28;20044;-75
2023/09/20 07:10:06;;;;;;;3.78;0.70;;;18.50;99.90;;;;;;5006353;28;20283;-74
2023/09/20 07:12:36;;;;;;;5.63;1.10;;;18.50;99.90;;;;;;5010598;28;20041;-74
2023/09/20 07:15:06;;;;;;;3.38;0.90;;;18.60;99.90;;;;;;5014175;28;20046;-74
2023/09/20 07:17:35;;;;;;;3.67;0.93;;;18.80;99.90;;;;;;5012739;28;20017;-74
2023/09/20 07:20:09;;;;;;;6.93;0.90;;;19.00;99.90;;;;;;5011591;28;20037;-74
2023/09/20 07:22:38;;;;;;;2.30;0.80;;;19.10;99.90;;;;;;5013507;28;20685;-74
2023/09/20 07:25:06;;;;;;;6.00;1.25;;;19.20;99.90;;;;;;5012173;28;20036;-74
2023/09/20 07:27:32;;;;;;;4.35;0.90;;;19.30;99.90;;;;;;5011021;28;20029;-74
2023/09/20 07:30:05;;;;;;;4.00;0.73;;;19.50;99.90;;;;;;5012601;28;20026;-74
2023/09/20 07:32:31;;;;;;;4.78;1.48;;;19.60;99.90;;;;;;5013064;28;20040;-75
2023/09/20 07:35:03;;;;;;;3.42;0.95;;;19.80;99.90;;;;;;5030503;28;20369;-74
2023/09/20 07:37:30;;;;;;;3.45;0.80;;;19.90;99.90;;;;;;4998714;28;20045;-74
2023/09/20 07:39:57;;;;;;;2.85;0.70;;;20.00;99.90;;;;;;5016935;28;20396;-74
2023/09/20 07:42:23;;;;;;;2.88;0.90;;;20.00;99.90;;;;;;5020847;28;20037;-74
2023/09/20 07:44:50;;;;;;;2.80;1.10;;;19.90;99.90;;;;;;5017212;28;20026;-74
2023/09/20 07:47:20;;;;;;;4.25;0.70;;;19.90;99.90;;;;;;5000401;28;20042;-74
2023/09/20 07:49:46;;;;;;;2.15;0.77;;;19.80;99.90;;;;;;4998995;28;20044;-74
2023/09/20 07:52:13;;;;;;;3.05;0.55;;;19.70;99.90;;;;;;4999710;28;20049;-74
2023/09/20 07:54:39;;;;;;;4.00;0.77;;;19.70;99.90;;;;;;5009171;28;20038;-74
2023/09/20 07:57:05;;;;;;;2.58;0.60;;;19.70;99.90;;;;;;4995095;28;20037;-74
2023/09/20 07:59:32;;;;;;;4.03;0.80;;;19.80;99.90;;;;;;5011060;28;20468;-74
2023/09/20 08:02:00;;;;;;;2.83;0.85;;;19.80;99.90;;;;;;5015818;28;20029;-75
2023/09/20 08:04:33;;;;;;;2.13;0.80;;;19.90;99.90;;;;;;4999284;28;20496;-74
2023/09/20 08:07:01;;;;;;;3.35;1.02;;;19.90;99.90;;;;;;4999620;28;20408;-74
2023/09/20 08:09:27;;;;;;;3.92;0.60;;;20.00;99.90;;;;;;4999747;28;20819;-74
2023/09/20 08:11:54;;;;;;;3.55;0.73;;;20.10;99.90;;;;;;5015901;28;20025;-74
2023/09/20 08:14:20;;;;;;;4.05;0.80;;;20.20;99.90;;;;;;5001611;28;20049;-75
2023/09/20 08:19:32;;;;;;;4.07;0.73;;;20.40;99.90;;;;;;5016527;28;20034;-74
2023/09/20 08:21:58;;;;;;;3.25;0.60;;;20.60;99.90;;;;;;5014622;28;20684;-74
2023/09/20 09:00:31;;;;;;;1.83;0.50;;;21.00;99.90;;;;;;4999311;28;20084;-74
2023/09/20 09:02:59;;;;;;;2.78;0.60;;;20.90;99.90;;;;;;4998851;28;20407;-74
2023/09/20 09:05:27;;;;;;;2.75;0.60;;;20.90;99.90;;;;;;5014880;28;20033;-74
2023/09/20 09:07:56;;;;;;;2.20;0.52;;;20.90;99.90;;;;;;5015588;28;20030;-75
2023/09/20 09:10:23;;;;;;;2.17;0.60;;;20.80;99.90;;;;;;4996214;28;20038;-74
2023/09/20 09:12:49;;;;;;;2.63;0.80;;;20.70;99.90;;;;;;5014509;28;20026;-74
2023/09/20 09:15:16;;;;;;;2.25;0.75;;;20.70;99.90;;;;;;4981906;28;20496;-74
2023/09/20 09:17:46;;;;;;;2.05;1.13;;;20.70;99.90;;;;;;5015413;28;20033;-74
2023/09/20 09:20:18;;;;;;;3.60;0.70;;;20.70;99.90;;;;;;4997513;28;20040;-74
2023/09/20 09:22:45;;;;;;;2.25;0.80;;;20.80;99.90;;;;;;4998352;28;20049;-74
2023/09/20 09:25:14;;;;;;;2.45;0.60;;;20.90;99.90;;;;;;4996320;28;20516;-74
2023/09/20 09:27:42;;;;;;;2.58;0.82;;;20.90;99.90;;;;;;5015191;28;20040;-74
2023/09/20 09:30:13;;;;;;;3.35;0.70;;;20.90;99.90;;;;;;5014913;28;20415;-74
2023/09/20 09:32:41;;;;;;;3.10;0.70;;;21.00;99.90;;;;;;5000091;28;20053;-74
2023/09/20 09:35:09;;;;;;;1.90;0.60;;;21.10;99.90;;;;;;4998085;28;20034;-74
2023/09/20 09:37:37;;;;;;;2.58;0.80;;;21.10;99.90;;;;;;5014997;28;20053;-74
2023/09/20 09:40:06;;;;;;;4.10;0.57;;;21.10;99.90;;;;;;4998421;28;20681;-74
2023/09/20 09:42:33;;;;;;;2.33;0.70;;;21.10;99.90;;;;;;5014024;28;20030;-74
2023/09/20 09:45:01;;;;;;;3.97;0.88;;;21.10;99.90;;;;;;4985727;28;20037;-74
2023/09/20 09:47:30;;;;;;;4.05;0.70;;;21.00;99.90;;;;;;4998439;28;20037;-74
2023/09/20 09:49:59;;;;;;;2.97;0.80;;;21.10;99.90;;;;;;5012272;28;20033;-74
2023/09/20 09:52:27;;;;;;;2.42;0.80;;;21.20;99.90;;;;;;4997070;28;20472;-74
2023/09/20 09:54:55;;;;;;;5.40;0.90;;;21.30;99.90;;;;;;4996869;28;20064;-74
2023/09/20 09:57:23;;;;;;;3.95;1.05;;;21.30;99.90;;;;;;4998455;28;20527;-74
2023/09/20 09:59:51;;;;;;;3.90;1.00;;;21.30;99.90;;;;;;5013270;28;20045;-74
2023/09/20 10:02:19;;;;;;;4.80;1.10;;;21.50;99.90;;;;;;4999589;28;20049;-74
2023/09/20 10:05:00;;;;;;;3.28;0.98;;;21.70;99.90;;;;;;4996401;28;20041;-74
2023/09/20 10:07:38;;;;;;;3.20;1.10;;;21.90;99.90;;;;;;4979882;28;20029;-74
2023/09/20 10:10:12;;;;;;;4.70;1.55;;;22.00;99.90;;;;;;4992152;28;20030;-75
2023/09/20 10:12:40;;;;;;;6.60;1.30;;;22.00;99.90;;;;;;4979230;28;20044;-74
2023/09/20 10:15:08;;;;;;;5.43;1.60;;;21.90;99.90;;;;;;5007589;28;20037;-74
2023/09/20 10:17:44;;;;;;;3.78;1.20;;;21.90;99.90;;;;;;4983113;28;20034;-74
2023/09/20 10:20:15;;;;;;;5.10;1.30;;;21.80;99.90;;;;;;5015117;28;20371;-75
2023/09/20 10:22:45;;;;;;;3.47;1.25;;;21.80;99.90;;;;;;5013337;28;20041;-75
2023/09/20 10:25:29;;;;;;;2.67;0.88;;;21.90;99.90;;;;;;5013443;28;20041;-74
2023/09/20 10:27:55;;;;;;;3.03;1.05;;;22.00;99.90;;;;;;4980432;28;20033;-74
2023/09/20 10:30:22;;;;;;;3.10;1.00;;;22.00;99.90;;;;;;5013234;28;20511;-75
2023/09/20 10:32:59;;;;;;;3.45;1.30;;;22.10;99.90;;;;;;4997038;28;20523;-75
2023/09/20 10:35:33;;;;;;;2.47;1.15;;;22.30;99.90;;;;;;5014601;28;20037;-74
2023/09/20 10:38:08;;;;;;;2.78;1.10;;;22.20;99.90;;;;;;4996047;28;20408;-75
2023/09/20 10:40:59;;;;;;;4.00;0.70;;;22.30;99.90;;;;;;5009954;28;20042;-75
2023/09/20 10:43:35;;;;;;;3.35;0.85;;;22.40;99.90;;;;;;4961101;28;21192;-84
2023/09/20 10:46:19;;;;;;;2.13;0.90;;;22.40;99.90;;;;;;5012429;28;20626;-76
2023/09/20 10:48:50;;;;;;;2.70;0.75;;;22.50;99.90;;;;;;5013215;28;20029;-77
2023/09/20 10:51:39;;;;;;;1.70;0.88;;;22.80;99.90;;;;;;5011519;28;20472;-77
2023/09/20 10:54:26;;;;;;;3.47;1.77;;;23.30;99.90;;;;;;5013387;28;20056;-76
2023/09/20 10:56:52;;;;;;;4.72;1.33;;;23.70;99.90;;;;;;4995623;28;20080;-77
2023/09/20 10:59:24;;;;;;;4.15;1.20;;;23.90;99.90;;;;;;5005805;28;20033;-76
2023/09/20 11:01:51;;;;;;;4.15;1.05;;;24.10;99.90;;;;;;5010072;28;20481;-76
2023/09/20 11:04:18;;;;;;;3.83;1.60;;;24.30;99.90;;;;;;5008437;28;20030;-76
2023/09/20 11:06:52;;;;;;;7.47;5.25;;;24.30;99.90;;;;;;5013230;28;20040;-78
2023/09/20 11:09:20;;;;;;;3.78;2.20;;;24.20;99.90;;;;;;5014677;28;20037;-75
2023/09/20 11:11:47;;;;;;;5.45;3.83;;;24.00;99.90;;;;;;5017468;28;20361;-75
2023/09/20 11:14:14;;;;;;;2.20;0.90;;;23.90;99.90;;;;;;5016495;28;20048;-75
2023/09/20 11:16:42;;;;;;;1.98;0.80;;;23.90;99.90;;;;;;5016791;28;20053;-76
2023/09/20 11:19:13;;;;;;;2.38;0.77;;;24.10;99.90;;;;;;5016297;28;20029;-75
2023/09/20 11:21:43;;;;;;;3.58;0.70;;;24.20;99.90;;;;;;5002051;28;20036;-75
2023/09/20 11:24:10;;;;;;;5.43;0.60;;;24.30;99.90;;;;;;5016998;28;20025;-75
2023/09/20 11:26:40;;;;;;;3.15;0.75;;;24.50;99.90;;;;;;5016126;28;20044;-75
2023/09/20 11:29:10;;;;;;;1.92;0.60;;;24.50;99.90;;;;;;5016681;28;20044;-75
2023/09/20 11:31:37;;;;;;;3.17;0.60;;;24.40;99.90;;;;;;5015059;28;20392;-75
2023/09/20 11:34:05;;;;;;;2.67;0.50;;;24.40;99.90;;;;;;4999874;28;20041;-75
2023/09/20 11:36:40;;;;;;;2.95;0.60;;;24.50;99.90;;;;;;4998377;28;20045;-76
2023/09/20 11:39:07;;;;;;;2.83;0.70;;;24.40;99.90;;;;;;4983690;28;20388;-75
2023/09/20 11:41:35;;;;;;;1.83;0.60;;;24.30;99.90;;;;;;4999575;28;20033;-75
2023/09/20 11:44:02;;;;;;;2.90;0.70;;;24.30;99.90;;;;;;5000453;28;20033;-75
2023/09/20 11:46:33;;;;;;;1.40;0.60;;;24.20;99.90;;;;;;5016063;28;20036;-75
2023/09/20 11:49:00;;;;;;;2.65;0.90;;;24.00;99.90;;;;;;5000540;28;20041;-75
2023/09/20 11:51:36;;;;;;;3.15;0.77;;;23.90;99.90;;;;;;5016948;28;20030;-75
2023/09/20 11:54:06;;;;;;;1.40;0.50;;;24.30;99.90;;;;;;5014245;28;20033;-76
2023/09/20 11:56:35;;;;;;;3.03;0.60;;;24.90;99.90;;;;;;5015370;28;20045;-75
2023/09/20 11:59:09;;;;;;;2.40;0.60;;;25.60;99.90;;;;;;5012155;28;20096;-75
2023/09/20 12:01:42;;;;;;;3.42;0.65;;;26.00;99.90;;;;;;4997175;28;20033;-75
2023/09/20 12:04:08;;;;;;;6.03;0.85;;;26.00;99.90;;;;;;5006404;28;20041;-75
2023/09/20 12:06:35;;;;;;;1.33;0.52;;;25.80;99.90;;;;;;5017886;28;20029;-75
2023/09/20 12:09:03;;;;;;;2.00;0.50;;;25.90;99.90;;;;;;5013535;28;20029;-75
2023/09/20 12:11:30;;;;;;;2.15;0.57;;;26.40;99.90;;;;;;5015283;28;20037;-75
2023/09/20 12:13:56;;;;;;;1.63;0.50;;;27.20;99.90;;;;;;5016189;28;20041;-75
2023/09/20 12:16:23;;;;;;;2.13;0.60;;;28.00;99.90;;;;;;5001095;28;20037;-75
2023/09/20 12:18:58;;;;;;;1.30;0.60;;;28.30;99.90;;;;;;5016158;28;20471;-75
2023/09/20 12:21:25;;;;;;;2.75;0.55;;;28.20;99.90;;;;;;5029503;28;20025;-75
2023/09/20 12:23:52;;;;;;;2.50;0.57;;;27.70;99.90;;;;;;4978835;28;20053;-76
2023/09/20 12:26:18;;;;;;;2.08;0.50;;;27.40;99.90;;;;;;4991209;28;20033;-75
2023/09/20 12:28:45;;;;;;;4.20;0.60;;;27.70;99.90;;;;;;5013537;28;20037;-76
2023/09/20 12:31:13;;;;;;;1.75;0.50;;;27.70;99.90;;;;;;4992757;28;20037;-76
2023/09/20 12:33:40;;;;;;;1.60;0.52;;;27.50;99.90;;;;;;5001759;28;20041;-75
2023/09/20 12:36:11;;;;;;;1.92;0.60;;;27.20;99.90;;;;;;5014742;28;20408;-76
2023/09/20 12:38:37;;;;;;;1.83;0.68;;;27.00;99.90;;;;;;5014249;28;20045;-76
2023/09/20 12:41:04;;;;;;;1.92;0.50;;;26.80;99.90;;;;;;5014044;28;20030;-76
2023/09/20 12:43:30;;;;;;;1.27;0.50;;;26.50;99.90;;;;;;5015863;28;20037;-76
2023/09/20 12:45:57;;;;;;;2.47;0.70;;;26.40;99.90;;;;;;4984049;28;20038;-75
2023/09/20 12:48:23;;;;;;;3.00;0.70;;;26.40;99.90;;;;;;4992261;28;21042;-75
2023/09/20 12:50:50;;;;;;;1.60;0.70;;;26.60;99.90;;;;;;4983666;28;20032;-75
2023/09/20 12:53:16;;;;;;;1.85;0.50;;;26.40;99.90;;;;;;5000322;28;20033;-75
2023/09/20 12:55:43;;;;;;;3.08;0.50;;;26.30;99.90;;;;;;5014704;28;20415;-75
2023/09/20 12:58:10;;;;;;;2.00;0.50;;;26.20;99.90;;;;;;4967052;28;20041;-75
2023/09/20 13:00:38;;;;;;;2.35;0.50;;;26.30;99.90;;;;;;4997746;28;20025;-76
2023/09/20 13:03:07;;;;;;;1.65;0.40;;;26.40;99.90;;;;;;5013437;28;20357;-75
2023/09/20 13:05:37;;;;;;;1.55;0.50;;;26.10;99.90;;;;;;5012733;28;20037;-75
2023/09/20 13:08:06;;;;;;;2.22;0.90;;;25.90;99.90;;;;;;4996930;28;20041;-75
2023/09/20 13:10:33;;;;;;;3.13;0.57;;;26.20;99.90;;;;;;5012926;28;20045;-75
2023/09/20 13:13:03;;;;;;;1.98;0.73;;;26.40;99.90;;;;;;4996812;28;20041;-76
2023/09/20 13:15:30;;;;;;;1.60;0.50;;;26.60;99.90;;;;;;5014379;28;20492;-76
2023/09/20 13:17:56;;;;;;;1.95;0.65;;;27.40;99.90;;;;;;5000439;28;20056;-75
2023/09/20 13:20:25;;;;;;;2.17;0.60;;;28.10;99.20;;;;;;5014142;28;20104;-76
2023/09/20 13:22:53;;;;;;;2.92;0.60;;;28.00;98.50;;;;;;5025310;28;20037;-76
2023/09/20 13:25:19;;;;;;;3.90;0.50;;;27.60;98.40;;;;;;4995949;28;20033;-75
2023/09/20 13:27:49;;;;;;;3.00;0.60;;;27.30;99.00;;;;;;4983570;28;20041;-75
2023/09/20 13:30:17;;;;;;;1.55;0.57;;;27.10;99.10;;;;;;5016642;28;20029;-75
2023/09/20 13:32:46;;;;;;;2.88;0.80;;;27.40;99.50;;;;;;5014976;28;20032;-76
2023/09/20 13:35:15;;;;;;;1.58;0.55;;;28.30;98.50;;;;;;4999002;28;20044;-76